Impacts METAR Board
IDs:

KTPA - Tampa Intl Arpt, FL, US

Updated at: 2000 UTC 08 Feb 2023
Potential Impact None Slight Moderate High
Time 08/08Z 08/09Z 08/10Z 08/11Z 08/12Z 08/13Z 08/14Z 08/15Z 08/16Z 08/17Z 08/18Z 08/19Z 08/20Z
Temp64 63 63 63 63 64 70 73 75 77 79 80 81
Dewpt55 55 56 56 56 56 56 56 57 57 56 56 55
Altim30.24 30.23 30.23 30.24 30.26 30.26 30.28 30.29 30.29 30.28 30.24 30.21 30.18
VIS10 10 10 10 10 10 10 10 10 10 10 10 10
CIG-- -- -- -- -- -- -- -- -- -- -- -- --
CoverCLRCLRCLRCLRCLRCLRCLRCLRCLRFEWFEWFEWCLR
FltCatVFRVFRVFRVFRVFRVFRVFRVFRVFRVFRVFRVFRVFR
WX--------------------------
WDir11000509010011013014001200160
WSpd4 0 0 3 7 3 6 6 9 5 7 5 9
WGst-- -- -- -- -- -- -- -- -- -- -- -- --
Raw hourly METARs
KTPA 080753Z 11004KT 10SM CLR 18/13 A3024 RMK AO2 SLP239 T01780128
KTPA 080853Z 00000KT 10SM CLR 17/13 A3023 RMK AO2 SLP237 T01720128 58008
KTPA 080953Z 00000KT 10SM CLR 17/13 A3023 RMK AO2 SLP237 T01720133
KTPA 081053Z 05003KT 10SM CLR 17/13 A3024 RMK AO2 SLP240 T01720133
KTPA 081153Z COR 09007KT 10SM CLR 17/13 A3026 RMK AO2 SLP245 T01720133 10189 20167 53008
KTPA 081253Z 10003KT 10SM CLR 18/13 A3026 RMK AO2 SLP248 T01780133
KTPA 081353Z 11006KT 10SM CLR 21/13 A3028 RMK AO2 SLP253 T02110133
KTPA 081453Z 13006KT 10SM CLR 23/13 A3029 RMK AO2 SLP257 T02280133 53012
KTPA 081553Z 14009KT 10SM CLR 24/14 A3029 RMK AO2 SLP256 T02390139
KTPA 081653Z VRB05KT 10SM FEW035 25/14 A3028 RMK AO2 SLP252 T02500139
KTPA 081753Z 12007KT 10SM FEW035 26/13 A3024 RMK AO2 SLP241 T02610133 10261 20172 58017
KTPA 081853Z COR VRB05KT 10SM FEW035 27/13 A3021 RMK AO2 SLP229 T02670133
KTPA 081953Z 16009KT 10SM CLR 27/13 A3018 RMK AO2 SLP220 T02720128



Page loaded:  20:39 UTC  |   12:39 PM Pacific  |   01:39 PM Mountain  |   02:39 PM Central  |   03:39 PM Eastern

 

ADVISORIES

FORECASTS

FORECASTS

OBSERVATIONS

USER TOOLS

ABOUT US